Time;durP1;ratioP1;P1;durP2;ratioP2;P2;SDS_P1;SDS_P2;PMS_P1;PMS_P2;Temp;Humidity;BMP_temperature;BMP_pressure;BME280_temperature;BME280_humidity;BME280_pressure;Samples;Min_cycle;Max_cycle;Signal;HPM_P1;HPM_P2
2024/02/20 00:01:50;;;;;;;9.97;0.67;;;7.90;99.90;;;;;;4960149;29;20454;-84
2024/02/20 00:04:19;;;;;;;1.10;0.47;;;7.90;99.90;;;;;;4958308;29;20453;-84
2024/02/20 00:06:46;;;;;;;1.53;0.50;;;7.90;99.90;;;;;;4958518;29;20493;-83
2024/02/20 00:09:13;;;;;;;0.63;0.47;;;7.90;99.90;;;;;;4958220;29;20516;-83
2024/02/20 00:11:43;;;;;;;0.60;0.50;;;7.90;99.90;;;;;;4957585;29;20484;-83
2024/02/20 00:14:10;;;;;;;1.37;0.63;;;7.90;99.90;;;;;;4962768;29;20478;-83
2024/02/20 00:16:37;;;;;;;0.30;0.30;;;7.80;99.90;;;;;;4971785;29;20434;-83
2024/02/20 00:19:03;;;;;;;0.63;0.63;;;7.80;99.90;;;;;;4971643;28;20450;-83
2024/02/20 00:21:30;;;;;;;0.53;0.43;;;7.80;99.90;;;;;;4973272;29;20481;-83
2024/02/20 00:23:57;;;;;;;0.47;0.40;;;7.80;99.90;;;;;;4980155;28;20460;-83
2024/02/20 00:26:24;;;;;;;0.50;0.50;;;7.80;99.90;;;;;;4979952;28;20445;-83
2024/02/20 00:28:52;;;;;;;0.77;0.50;;;7.80;99.90;;;;;;4977390;29;20486;-84
2024/02/20 00:31:19;;;;;;;0.30;0.30;;;7.80;99.90;;;;;;4965972;29;20458;-85
2024/02/20 00:33:46;;;;;;;0.53;0.40;;;7.80;99.90;;;;;;4963407;29;20490;-85
2024/02/20 00:36:13;;;;;;;0.50;0.40;;;7.80;99.90;;;;;;4965084;29;20446;-85
2024/02/20 00:38:40;;;;;;;0.63;0.63;;;7.70;99.90;;;;;;4966944;29;20451;-85
2024/02/20 00:41:06;;;;;;;1.00;0.80;;;7.70;99.90;;;;;;4966915;29;20481;-85
2024/02/20 00:43:33;;;;;;;0.40;0.30;;;7.70;99.90;;;;;;4967058;29;20446;-84
2024/02/20 00:46:03;;;;;;;0.43;0.33;;;7.70;99.90;;;;;;4965521;29;20445;-84
2024/02/20 00:48:30;;;;;;;3.60;0.63;;;7.70;99.90;;;;;;4965790;29;20446;-84
2024/02/20 00:50:56;;;;;;;1.47;0.47;;;7.70;99.90;;;;;;4965521;29;20472;-84
2024/02/20 00:53:23;;;;;;;0.40;0.33;;;7.70;99.90;;;;;;4965543;29;20446;-84
2024/02/20 00:55:50;;;;;;;0.40;0.30;;;7.70;99.90;;;;;;4964438;29;20446;-85
2024/02/20 00:58:16;;;;;;;1.37;0.40;;;7.60;99.90;;;;;;4965004;29;20447;-85
2024/02/20 01:00:43;;;;;;;0.50;0.40;;;7.60;99.90;;;;;;4964950;29;20462;-84
2024/02/20 01:03:11;;;;;;;1.57;0.73;;;7.60;99.90;;;;;;4966480;29;20530;-84
2024/02/20 01:05:38;;;;;;;0.67;0.67;;;7.70;99.90;;;;;;4969603;29;20434;-83
2024/02/20 01:08:06;;;;;;;1.33;0.53;;;7.70;99.90;;;;;;4956159;29;20497;-84
2024/02/20 01:10:32;;;;;;;0.40;0.37;;;7.60;99.90;;;;;;4956503;28;20838;-84
2024/02/20 01:13:00;;;;;;;0.90;0.53;;;7.60;99.90;;;;;;4956322;29;20426;-84
2024/02/20 01:15:26;;;;;;;0.70;0.50;;;7.60;99.90;;;;;;4955472;29;20490;-84
2024/02/20 01:17:53;;;;;;;0.60;0.53;;;7.60;99.90;;;;;;4956055;29;20448;-84
2024/02/20 01:20:21;;;;;;;0.40;0.40;;;7.50;99.90;;;;;;4955814;29;20462;-84
2024/02/20 01:22:49;;;;;;;0.80;0.60;;;7.50;99.90;;;;;;4955382;29;20438;-83
2024/02/20 01:25:16;;;;;;;0.93;0.90;;;7.40;99.90;;;;;;4956101;29;20434;-83
2024/02/20 01:27:43;;;;;;;0.80;0.60;;;7.40;99.90;;;;;;4956068;29;20450;-84
2024/02/20 01:30:11;;;;;;;2.20;1.10;;;7.40;99.90;;;;;;4956583;28;20466;-84
2024/02/20 01:32:37;;;;;;;0.80;0.53;;;7.40;99.90;;;;;;4960201;29;20472;-84
2024/02/20 01:35:05;;;;;;;2.00;1.30;;;7.40;99.90;;;;;;4963400;29;20490;-84
2024/02/20 01:37:33;;;;;;;1.47;0.40;;;7.40;99.90;;;;;;4962001;29;20442;-84
2024/02/20 01:40:00;;;;;;;1.43;0.70;;;7.40;99.90;;;;;;4962520;29;20470;-84
2024/02/20 01:42:27;;;;;;;2.00;0.90;;;7.40;99.90;;;;;;4965365;29;20834;-84
2024/02/20 01:44:54;;;;;;;0.70;0.40;;;7.40;99.90;;;;;;4966622;29;20437;-84
2024/02/20 01:47:21;;;;;;;2.33;0.73;;;7.40;99.90;;;;;;4966602;29;20457;-83
2024/02/20 01:49:48;;;;;;;0.50;0.50;;;7.40;99.90;;;;;;4966914;29;20470;-83
2024/02/20 01:52:16;;;;;;;0.50;0.40;;;7.40;99.90;;;;;;4965826;29;20439;-83
2024/02/20 01:54:44;;;;;;;0.40;0.40;;;7.40;99.90;;;;;;4965811;29;20549;-84
2024/02/20 01:57:12;;;;;;;3.03;0.73;;;7.50;99.90;;;;;;4966410;29;20450;-83
2024/02/20 01:59:39;;;;;;;0.60;0.33;;;7.40;99.90;;;;;;4941991;29;20475;-83
2024/02/20 02:02:07;;;;;;;2.00;0.97;;;7.50;99.90;;;;;;4945251;29;20949;-83
2024/02/20 02:04:34;;;;;;;0.47;0.37;;;7.50;99.90;;;;;;4946773;29;20475;-84
2024/02/20 02:07:01;;;;;;;0.60;0.47;;;7.50;99.90;;;;;;4947189;29;20944;-84
2024/02/20 02:09:27;;;;;;;0.30;0.30;;;7.40;99.90;;;;;;4947117;29;20999;-83
2024/02/20 02:11:55;;;;;;;1.03;0.50;;;7.40;99.90;;;;;;4946828;29;20483;-84
2024/02/20 02:14:22;;;;;;;0.43;0.43;;;7.30;99.90;;;;;;4946464;29;20865;-84
2024/02/20 02:16:49;;;;;;;0.50;0.50;;;7.30;99.90;;;;;;4946539;29;20458;-84
2024/02/20 02:19:16;;;;;;;0.60;0.50;;;7.30;99.90;;;;;;4947871;29;20451;-84
2024/02/20 02:21:42;;;;;;;0.63;0.60;;;7.30;99.90;;;;;;4947037;29;20817;-84
2024/02/20 02:24:09;;;;;;;0.30;0.30;;;7.20;99.90;;;;;;4946294;29;20520;-84
2024/02/20 02:26:38;;;;;;;1.03;0.60;;;7.20;99.90;;;;;;4946493;29;20459;-84
2024/02/20 02:29:04;;;;;;;1.73;0.70;;;7.20;99.90;;;;;;4945588;29;20514;-84
2024/02/20 02:31:31;;;;;;;4.00;0.83;;;7.20;99.90;;;;;;4946655;29;20478;-84
2024/02/20 02:33:58;;;;;;;0.50;0.50;;;7.20;99.90;;;;;;4946419;29;20447;-84
2024/02/20 02:36:25;;;;;;;0.87;0.40;;;7.20;99.90;;;;;;4945981;29;20443;-84
2024/02/20 02:38:52;;;;;;;0.70;0.40;;;7.20;99.90;;;;;;4946363;29;20451;-84
2024/02/20 02:41:21;;;;;;;2.43;0.53;;;7.20;99.90;;;;;;4945263;29;20459;-84
2024/02/20 02:43:50;;;;;;;0.80;0.50;;;7.20;99.90;;;;;;4945019;29;20479;-84
2024/02/20 02:46:17;;;;;;;0.90;0.43;;;7.20;99.90;;;;;;4945352;29;21025;-84
2024/02/20 02:48:44;;;;;;;0.40;0.40;;;7.20;99.90;;;;;;4945673;29;20447;-84
2024/02/20 02:51:10;;;;;;;0.93;0.50;;;7.20;99.90;;;;;;4945656;29;20475;-84
2024/02/20 02:53:39;;;;;;;0.70;0.70;;;7.20;99.90;;;;;;4945327;29;20457;-84
2024/02/20 02:56:09;;;;;;;0.50;0.50;;;7.20;99.90;;;;;;4944895;29;20497;-84
2024/02/20 02:58:36;;;;;;;0.93;0.60;;;7.30;99.90;;;;;;4946234;29;20431;-84
2024/02/20 03:01:04;;;;;;;1.63;0.50;;;7.20;99.90;;;;;;4944886;29;20478;-83
2024/02/20 03:03:31;;;;;;;1.60;0.60;;;7.20;99.90;;;;;;4945186;29;20447;-84
2024/02/20 03:05:58;;;;;;;0.40;0.40;;;7.20;99.90;;;;;;4945115;29;20454;-84
2024/02/20 03:08:25;;;;;;;0.70;0.70;;;7.20;99.90;;;;;;4944536;29;20458;-83
2024/02/20 03:10:51;;;;;;;2.70;0.60;;;7.30;99.90;;;;;;4944395;29;20981;-84
2024/02/20 03:13:18;;;;;;;0.40;0.40;;;7.30;99.90;;;;;;4944681;29;20454;-83
2024/02/20 03:15:45;;;;;;;0.40;0.40;;;7.30;99.90;;;;;;4950125;29;20489;-84
2024/02/20 03:18:13;;;;;;;0.40;0.40;;;7.30;99.90;;;;;;4950160;29;20447;-84
2024/02/20 03:20:39;;;;;;;0.50;0.50;;;7.30;99.90;;;;;;4937646;29;20985;-84
2024/02/20 03:23:06;;;;;;;0.80;0.50;;;7.30;99.90;;;;;;4938003;29;20458;-84
2024/02/20 03:25:33;;;;;;;0.70;0.47;;;7.20;99.90;;;;;;4937483;29;20832;-84
2024/02/20 03:28:00;;;;;;;0.67;0.67;;;7.30;99.90;;;;;;4937880;29;20458;-84
2024/02/20 03:30:28;;;;;;;0.50;0.40;;;7.30;99.90;;;;;;4938071;29;20558;-84
2024/02/20 03:32:55;;;;;;;0.50;0.50;;;7.30;99.90;;;;;;4938091;29;20459;-84
2024/02/20 03:35:23;;;;;;;1.43;0.50;;;7.20;99.90;;;;;;4937468;29;21000;-84
2024/02/20 03:37:50;;;;;;;0.80;0.50;;;7.20;99.90;;;;;;4937641;29;20466;-84
2024/02/20 03:40:17;;;;;;;2.20;0.67;;;7.20;99.90;;;;;;4937236;29;20455;-84
2024/02/20 03:42:44;;;;;;;1.27;0.53;;;7.20;99.90;;;;;;4938018;29;20455;-84
2024/02/20 03:45:11;;;;;;;0.47;0.40;;;7.20;99.90;;;;;;4937660;29;20459;-84
2024/02/20 03:47:38;;;;;;;0.80;0.60;;;7.20;99.90;;;;;;4938344;29;20447;-84
2024/02/20 03:50:06;;;;;;;0.40;0.40;;;7.10;99.90;;;;;;4937820;29;20493;-84
2024/02/20 03:52:34;;;;;;;1.00;0.40;;;7.10;99.90;;;;;;4937535;29;20455;-84
2024/02/20 03:55:01;;;;;;;2.10;0.50;;;7.10;99.90;;;;;;4937413;29;20486;-84
2024/02/20 03:57:27;;;;;;;0.87;0.50;;;7.00;99.90;;;;;;4937688;29;20450;-84
2024/02/20 03:59:56;;;;;;;3.87;0.80;;;7.00;99.90;;;;;;4937575;29;21000;-84
2024/02/20 04:02:22;;;;;;;0.60;0.50;;;7.00;99.90;;;;;;4937563;29;20455;-84
2024/02/20 04:04:49;;;;;;;0.50;0.40;;;6.90;99.90;;;;;;4937807;29;20451;-84
2024/02/20 04:07:17;;;;;;;6.50;0.93;;;6.90;99.90;;;;;;4937827;29;20455;-84
2024/02/20 04:09:45;;;;;;;0.70;0.40;;;6.90;99.90;;;;;;4937766;29;20526;-84
2024/02/20 04:12:12;;;;;;;0.53;0.40;;;6.80;99.90;;;;;;4937884;29;20542;-84
2024/02/20 04:14:38;;;;;;;1.13;0.67;;;6.80;99.90;;;;;;4937394;29;20483;-84
2024/02/20 04:17:05;;;;;;;0.40;0.40;;;6.80;99.90;;;;;;4937537;29;20820;-84
2024/02/20 04:19:32;;;;;;;0.47;0.47;;;6.80;99.90;;;;;;4937593;29;20467;-84
2024/02/20 04:21:59;;;;;;;0.40;0.40;;;6.80;99.90;;;;;;4937688;29;20447;-84
2024/02/20 04:24:25;;;;;;;0.30;0.30;;;6.80;99.90;;;;;;4939199;29;20451;-84
2024/02/20 04:26:53;;;;;;;0.47;0.47;;;6.80;99.90;;;;;;4939034;29;20458;-84
2024/02/20 04:29:20;;;;;;;1.47;0.60;;;6.80;99.90;;;;;;4937737;29;20462;-84
2024/02/20 04:31:47;;;;;;;0.93;0.60;;;6.80;99.90;;;;;;4937426;29;20815;-84
2024/02/20 04:34:13;;;;;;;1.33;0.40;;;6.80;99.90;;;;;;4937243;29;20455;-84
2024/02/20 04:36:40;;;;;;;0.47;0.47;;;6.70;99.90;;;;;;4937326;29;20869;-84
2024/02/20 04:39:07;;;;;;;0.90;0.50;;;6.80;99.90;;;;;;4937064;29;20440;-84
2024/02/20 04:41:34;;;;;;;1.13;0.43;;;6.80;99.90;;;;;;4937292;29;20891;-84
2024/02/20 04:44:02;;;;;;;2.67;0.63;;;6.70;99.90;;;;;;4937488;29;20450;-84
2024/02/20 04:46:29;;;;;;;4.13;0.53;;;6.70;99.90;;;;;;4939095;29;20451;-84
2024/02/20 04:48:56;;;;;;;0.87;0.40;;;6.70;99.90;;;;;;4937763;29;20928;-84
2024/02/20 04:51:23;;;;;;;7.67;0.50;;;6.60;99.90;;;;;;4937435;29;20475;-85
2024/02/20 04:53:50;;;;;;;0.50;0.40;;;6.60;99.90;;;;;;4937340;29;20478;-84
2024/02/20 04:56:16;;;;;;;0.70;0.70;;;6.60;99.90;;;;;;4937155;29;20475;-84
2024/02/20 04:58:43;;;;;;;0.50;0.50;;;6.50;99.90;;;;;;4937401;29;20450;-84
2024/02/20 05:01:11;;;;;;;0.40;0.30;;;6.50;99.90;;;;;;4940929;29;20834;-84
2024/02/20 05:03:38;;;;;;;0.40;0.30;;;6.50;99.90;;;;;;4937752;29;20451;-84
2024/02/20 05:06:05;;;;;;;1.60;0.73;;;6.50;99.90;;;;;;4942348;29;20940;-84
2024/02/20 05:08:32;;;;;;;2.20;0.50;;;6.50;99.90;;;;;;4944854;29;20435;-84
2024/02/20 05:10:58;;;;;;;15.83;1.00;;;6.50;99.90;;;;;;4941325;29;20860;-85
2024/02/20 05:13:25;;;;;;;0.87;0.60;;;6.40;99.90;;;;;;4940963;29;20427;-85
2024/02/20 05:15:52;;;;;;;0.50;0.40;;;6.40;99.90;;;;;;4940676;29;20522;-85
2024/02/20 05:18:20;;;;;;;0.50;0.47;;;6.30;99.90;;;;;;4941942;29;20462;-84
2024/02/20 05:20:47;;;;;;;0.60;0.60;;;6.30;99.90;;;;;;4943265;29;20474;-85
2024/02/20 05:23:13;;;;;;;0.60;0.43;;;6.30;99.90;;;;;;4941727;29;20442;-84
2024/02/20 05:25:40;;;;;;;0.50;0.50;;;6.20;99.90;;;;;;4942174;29;20449;-84
2024/02/20 05:28:07;;;;;;;3.90;0.50;;;6.10;99.90;;;;;;4943900;29;20445;-84
2024/02/20 05:30:35;;;;;;;3.67;0.50;;;7.50;99.90;;;;;;4949857;29;20569;-84
2024/02/20 05:33:02;;;;;;;0.93;0.50;;;6.10;99.90;;;;;;4939798;29;20477;-85
2024/02/20 05:35:30;;;;;;;0.70;0.40;;;6.10;99.90;;;;;;4941900;29;20500;-84
2024/02/20 05:37:57;;;;;;;1.17;0.50;;;6.10;99.90;;;;;;4939558;29;20971;-85
2024/02/20 05:40:23;;;;;;;1.53;0.50;;;6.10;99.90;;;;;;4939655;29;20482;-85
2024/02/20 05:42:50;;;;;;;0.40;0.30;;;6.00;99.90;;;;;;4940252;29;20447;-85
2024/02/20 05:45:18;;;;;;;7.93;0.67;;;5.90;99.90;;;;;;4939843;29;20447;-85
2024/02/20 05:47:45;;;;;;;0.50;0.47;;;5.90;99.90;;;;;;4940389;29;20443;-85
2024/02/20 05:50:12;;;;;;;0.50;0.30;;;5.90;99.90;;;;;;4939465;29;20477;-85
2024/02/20 05:52:40;;;;;;;2.33;0.40;;;5.90;99.90;;;;;;4939821;29;20458;-84
2024/02/20 05:55:08;;;;;;;0.90;0.90;;;5.90;99.90;;;;;;4939799;29;20483;-85
2024/02/20 05:57:35;;;;;;;0.77;0.40;;;6.00;99.90;;;;;;4940585;29;20439;-85
2024/02/20 06:00:02;;;;;;;0.33;0.30;;;6.10;99.90;;;;;;4942284;29;20466;-84
2024/02/20 06:02:28;;;;;;;6.97;0.87;;;6.10;99.90;;;;;;4942133;29;20478;-85
2024/02/20 06:04:55;;;;;;;1.90;0.50;;;7.10;99.90;;;;;;4942788;29;20458;-85
2024/02/20 06:07:22;;;;;;;0.97;0.50;;;6.10;99.90;;;;;;4943799;29;20459;-85
2024/02/20 06:09:50;;;;;;;0.60;0.60;;;6.10;99.90;;;;;;4942127;29;20557;-84
2024/02/20 06:12:17;;;;;;;0.40;0.30;;;6.10;99.90;;;;;;4941463;29;20482;-84
2024/02/20 06:14:44;;;;;;;0.50;0.40;;;6.20;99.90;;;;;;4941433;29;20462;-85
2024/02/20 06:17:11;;;;;;;0.40;0.40;;;6.20;99.90;;;;;;4941820;29;20487;-85
2024/02/20 06:19:37;;;;;;;4.20;0.50;;;6.20;99.90;;;;;;4942206;29;20470;-84
2024/02/20 06:22:04;;;;;;;1.17;1.17;;;6.20;99.90;;;;;;4941969;29;20454;-85
2024/02/20 06:24:31;;;;;;;13.50;0.60;;;6.20;99.90;;;;;;4940776;29;20490;-84
2024/02/20 06:27:00;;;;;;;5.40;0.80;;;6.20;99.90;;;;;;4941556;29;20458;-84
2024/02/20 06:29:27;;;;;;;0.60;0.50;;;6.30;99.90;;;;;;4942548;29;20455;-84
2024/02/20 06:31:54;;;;;;;0.60;0.60;;;6.30;99.90;;;;;;4941421;29;20455;-84
2024/02/20 06:34:21;;;;;;;0.40;0.30;;;6.30;99.90;;;;;;4940665;29;20443;-84
2024/02/20 06:36:47;;;;;;;3.07;0.90;;;6.20;99.90;;;;;;4941234;29;20486;-84
2024/02/20 06:39:14;;;;;;;0.30;0.30;;;6.30;99.90;;;;;;4941000;29;20435;-84
2024/02/20 06:41:41;;;;;;;0.40;0.40;;;6.30;99.90;;;;;;4940853;29;20451;-84
2024/02/20 06:44:09;;;;;;;1.80;0.77;;;6.30;99.90;;;;;;4943220;29;20463;-84
2024/02/20 06:46:38;;;;;;;1.17;0.80;;;6.30;99.90;;;;;;4940503;29;20454;-84
2024/02/20 06:49:05;;;;;;;4.13;0.30;;;6.20;99.90;;;;;;4941324;29;20447;-84
2024/02/20 06:51:32;;;;;;;0.73;0.60;;;6.30;99.90;;;;;;4942622;29;20470;-84
2024/02/20 06:53:59;;;;;;;0.93;0.40;;;6.30;99.90;;;;;;4942828;29;20470;-84
2024/02/20 06:56:25;;;;;;;0.40;0.30;;;6.30;99.90;;;;;;4942807;29;20483;-84
2024/02/20 06:58:52;;;;;;;2.10;0.90;;;6.40;99.90;;;;;;4941183;29;20447;-84
2024/02/20 07:01:20;;;;;;;0.30;0.30;;;6.50;99.90;;;;;;4943926;29;20502;-84
2024/02/20 07:03:48;;;;;;;0.30;0.30;;;6.50;99.90;;;;;;4941776;29;20451;-84
2024/02/20 07:06:15;;;;;;;0.50;0.40;;;6.60;99.90;;;;;;4940537;29;20459;-84
2024/02/20 07:08:43;;;;;;;1.73;0.63;;;6.60;99.90;;;;;;4940329;29;20455;-84
2024/02/20 07:11:10;;;;;;;3.80;0.63;;;6.60;99.90;;;;;;4940155;29;20493;-84
2024/02/20 07:13:38;;;;;;;0.40;0.40;;;6.60;99.90;;;;;;4940570;29;20443;-84
2024/02/20 07:16:05;;;;;;;0.40;0.40;;;6.70;99.90;;;;;;4939743;29;20483;-84
2024/02/20 07:18:35;;;;;;;0.80;0.53;;;6.70;99.90;;;;;;4940047;29;20454;-84
2024/02/20 07:21:03;;;;;;;0.70;0.50;;;6.70;99.90;;;;;;4939850;29;20466;-84
2024/02/20 07:23:30;;;;;;;0.40;0.30;;;6.80;99.90;;;;;;4939806;29;20452;-84
2024/02/20 07:25:56;;;;;;;1.07;0.70;;;6.80;99.90;;;;;;4939664;29;20447;-84
2024/02/20 07:28:23;;;;;;;18.67;0.60;;;6.90;99.90;;;;;;4939060;29;20957;-84
2024/02/20 07:30:50;;;;;;;0.53;0.40;;;6.90;99.90;;;;;;4939566;29;20470;-84
2024/02/20 07:33:17;;;;;;;1.40;0.30;;;6.90;99.90;;;;;;4938726;29;20451;-84
2024/02/20 07:35:45;;;;;;;0.77;0.40;;;6.90;99.90;;;;;;4939060;29;20464;-84
2024/02/20 07:38:12;;;;;;;0.80;0.80;;;7.00;99.90;;;;;;4938971;29;20564;-84
2024/02/20 07:40:39;;;;;;;1.77;0.40;;;7.00;99.90;;;;;;4938657;29;20459;-84
2024/02/20 07:43:06;;;;;;;0.67;0.67;;;7.00;99.90;;;;;;4946493;29;20455;-83
2024/02/20 07:45:33;;;;;;;1.70;0.50;;;7.10;99.90;;;;;;4941303;29;20458;-83
2024/02/20 07:48:00;;;;;;;1.03;0.57;;;7.10;99.90;;;;;;4937587;29;20450;-84
2024/02/20 07:50:26;;;;;;;0.53;0.50;;;7.20;99.90;;;;;;4937093;29;20463;-83
2024/02/20 07:52:54;;;;;;;0.47;0.47;;;7.20;99.90;;;;;;4937289;29;20821;-83
2024/02/20 07:55:21;;;;;;;2.10;1.00;;;7.30;99.90;;;;;;4937334;29;20448;-83
2024/02/20 07:57:48;;;;;;;1.23;0.53;;;7.30;99.90;;;;;;4937434;29;20550;-83
2024/02/20 08:00:15;;;;;;;0.30;0.30;;;7.40;99.90;;;;;;4938399;29;20503;-83
2024/02/20 08:02:42;;;;;;;0.50;0.50;;;7.50;99.90;;;;;;4937530;29;20459;-83
2024/02/20 08:05:11;;;;;;;0.70;0.50;;;7.60;99.90;;;;;;4937860;29;20527;-83
2024/02/20 08:07:38;;;;;;;1.60;0.70;;;7.60;99.90;;;;;;4937951;29;20443;-83
2024/02/20 08:10:07;;;;;;;1.50;0.50;;;7.70;99.90;;;;;;4937408;29;20490;-83
2024/02/20 08:12:34;;;;;;;0.40;0.40;;;7.80;99.90;;;;;;4938843;29;20412;-83
2024/02/20 08:15:01;;;;;;;10.03;1.17;;;7.80;99.90;;;;;;4940113;29;20455;-83
2024/02/20 08:17:28;;;;;;;4.27;0.90;;;7.90;99.90;;;;;;4938882;29;20479;-83
2024/02/20 08:19:55;;;;;;;0.63;0.60;;;8.00;99.90;;;;;;4939379;29;20467;-83
2024/02/20 08:22:21;;;;;;;2.27;0.50;;;8.10;99.90;;;;;;4938327;29;20455;-83
2024/02/20 08:24:48;;;;;;;3.40;0.70;;;8.30;99.90;;;;;;4938175;29;20447;-83
2024/02/20 08:27:16;;;;;;;1.07;0.60;;;8.40;99.90;;;;;;4938261;29;20494;-83
2024/02/20 08:29:43;;;;;;;8.83;0.50;;;8.50;99.90;;;;;;4939149;29;20475;-83
2024/02/20 08:32:11;;;;;;;3.17;1.07;;;8.60;99.90;;;;;;4938306;29;20439;-83
2024/02/20 08:34:38;;;;;;;1.07;0.50;;;8.60;99.90;;;;;;4937836;29;21044;-83
2024/02/20 08:37:05;;;;;;;3.03;1.07;;;8.60;99.90;;;;;;4943646;29;20514;-83
2024/02/20 08:39:31;;;;;;;1.10;0.60;;;8.70;99.90;;;;;;4953931;29;20467;-83
2024/02/20 08:41:58;;;;;;;2.10;0.40;;;8.80;99.90;;;;;;4954055;29;20451;-83
2024/02/20 08:44:26;;;;;;;1.43;1.33;;;8.90;99.90;;;;;;4948417;29;20455;-83
2024/02/20 08:46:53;;;;;;;1.17;1.07;;;9.00;99.90;;;;;;4942250;29;20443;-83
2024/02/20 08:49:20;;;;;;;2.43;0.80;;;9.10;99.90;;;;;;4940202;29;20444;-83
2024/02/20 08:51:46;;;;;;;1.00;0.70;;;9.10;99.90;;;;;;4939446;29;20455;-83
2024/02/20 08:54:13;;;;;;;0.70;0.70;;;9.10;99.90;;;;;;4939660;29;20436;-83
2024/02/20 08:56:40;;;;;;;2.13;0.70;;;9.00;99.90;;;;;;4938979;29;20491;-83
2024/02/20 08:59:08;;;;;;;1.27;0.57;;;9.10;99.90;;;;;;4938566;29;20486;-83
2024/02/20 09:01:38;;;;;;;9.00;1.23;;;9.10;99.90;;;;;;4939596;29;20866;-83
2024/02/20 09:04:05;;;;;;;1.97;0.80;;;9.30;99.90;;;;;;4939492;29;20447;-83
2024/02/20 09:06:31;;;;;;;0.80;0.57;;;9.60;99.90;;;;;;4939990;29;20443;-82
2024/02/20 09:08:58;;;;;;;3.23;0.93;;;10.00;99.90;;;;;;4940702;29;20448;-82
2024/02/20 09:11:25;;;;;;;0.70;0.47;;;10.50;99.90;;;;;;4941999;29;21004;-81
2024/02/20 09:13:51;;;;;;;8.33;1.90;;;11.00;99.90;;;;;;4941010;29;20448;-82
2024/02/20 09:16:18;;;;;;;0.70;0.70;;;12.00;99.90;;;;;;4941066;29;20819;-82
2024/02/20 09:18:46;;;;;;;1.97;0.50;;;12.80;99.90;;;;;;4940879;29;20454;-82
2024/02/20 09:21:15;;;;;;;8.57;0.70;;;13.20;99.90;;;;;;4940124;29;20467;-82
2024/02/20 09:23:43;;;;;;;2.40;0.70;;;13.10;99.90;;;;;;4939482;29;20980;-82
2024/02/20 09:26:11;;;;;;;1.00;0.50;;;12.70;99.90;;;;;;4939554;29;20463;-82
2024/02/20 09:28:38;;;;;;;1.03;0.50;;;12.20;99.90;;;;;;4938590;29;20466;-81
2024/02/20 09:31:05;;;;;;;14.73;1.10;;;11.60;99.90;;;;;;4938124;29;20475;-82
2024/02/20 09:33:32;;;;;;;2.20;0.60;;;10.90;99.90;;;;;;4938224;29;20459;-82
2024/02/20 09:36:01;;;;;;;6.10;0.63;;;10.50;99.90;;;;;;4938702;29;20455;-81
2024/02/20 09:38:27;;;;;;;2.60;0.80;;;10.10;99.90;;;;;;4937886;29;20434;-82
2024/02/20 09:40:54;;;;;;;2.83;0.70;;;9.80;99.90;;;;;;4938855;29;20467;-82
2024/02/20 09:43:21;;;;;;;3.30;1.57;;;9.80;99.90;;;;;;4937945;29;20447;-82
2024/02/20 09:45:50;;;;;;;8.53;1.07;;;9.90;99.90;;;;;;4938279;29;20439;-82
2024/02/20 09:48:19;;;;;;;1.00;0.60;;;10.40;99.90;;;;;;4938328;29;20453;-82
2024/02/20 09:50:49;;;;;;;0.83;0.83;;;10.90;99.90;;;;;;4938318;29;20463;-82
2024/02/20 09:53:18;;;;;;;2.63;0.80;;;11.60;99.90;;;;;;4941595;29;20447;-82
2024/02/20 09:55:46;;;;;;;9.33;0.93;;;12.50;99.90;;;;;;4945078;29;20439;-82
2024/02/20 09:58:12;;;;;;;6.63;1.10;;;12.90;99.90;;;;;;4947504;29;20486;-82
2024/02/20 10:00:40;;;;;;;0.80;0.80;;;13.30;99.90;;;;;;4941333;29;20478;-82
2024/02/20 10:03:07;;;;;;;6.23;0.70;;;13.60;99.90;;;;;;4940975;29;20454;-82
2024/02/20 10:05:43;;;;;;;3.57;0.77;;;14.30;99.90;;;;;;4941602;29;20454;-82
2024/02/20 10:08:10;;;;;;;0.80;0.60;;;14.50;99.90;;;;;;4941718;29;20431;-81
2024/02/20 10:10:38;;;;;;;0.90;0.70;;;14.90;99.90;;;;;;4939688;29;20885;-81
2024/02/20 10:13:07;;;;;;;1.67;0.70;;;15.80;99.90;;;;;;4939664;29;20853;-81
2024/02/20 10:15:34;;;;;;;3.37;1.10;;;16.40;99.90;;;;;;4939782;29;20485;-81
2024/02/20 10:18:01;;;;;;;1.67;0.73;;;16.50;99.90;;;;;;4939476;29;20483;-81
2024/02/20 10:20:29;;;;;;;1.13;0.50;;;16.10;99.90;;;;;;4940678;29;20467;-85
2024/02/20 10:23:04;;;;;;;2.40;0.83;;;15.50;99.90;;;;;;4940041;29;20447;-81
2024/02/20 10:25:30;;;;;;;5.37;0.80;;;14.90;99.90;;;;;;4940639;29;20450;-82
2024/02/20 10:27:59;;;;;;;3.10;0.90;;;14.20;99.90;;;;;;4940431;29;20449;-82
2024/02/20 10:30:25;;;;;;;4.33;0.67;;;13.50;99.90;;;;;;4940439;29;20474;-82
2024/02/20 10:32:52;;;;;;;0.60;0.60;;;13.80;99.90;;;;;;4940791;29;20456;-82
2024/02/20 10:35:21;;;;;;;0.60;0.60;;;15.40;99.90;;;;;;4940630;29;20451;-82
2024/02/20 10:37:48;;;;;;;0.80;0.70;;;17.20;99.90;;;;;;4940176;29;20575;-82
2024/02/20 10:40:16;;;;;;;0.80;0.53;;;18.40;99.90;;;;;;4939972;29;20486;-82
2024/02/20 10:42:43;;;;;;;2.07;0.93;;;19.40;99.90;;;;;;4940447;29;20451;-82
2024/02/20 10:45:12;;;;;;;5.03;0.50;;;19.80;99.90;;;;;;4939963;29;20439;-82
2024/02/20 10:47:45;;;;;;;1.87;0.80;;;20.60;98.80;;;;;;4940027;29;20447;-82
2024/02/20 10:50:14;;;;;;;0.77;0.60;;;21.40;96.80;;;;;;4940124;29;20968;-81
2024/02/20 10:52:41;;;;;;;0.87;0.77;;;22.10;92.30;;;;;;4940263;29;20538;-82
2024/02/20 10:55:10;;;;;;;1.97;1.13;;;22.20;90.70;;;;;;4952032;29;20446;-82
2024/02/20 10:57:38;;;;;;;4.83;0.90;;;21.80;88.50;;;;;;4957616;29;20467;-82
2024/02/20 11:00:08;;;;;;;2.40;0.83;;;21.50;87.60;;;;;;4957117;29;20481;-82
2024/02/20 11:02:38;;;;;;;1.00;0.50;;;21.40;86.50;;;;;;4956589;29;20465;-82
2024/02/20 11:05:05;;;;;;;0.53;0.53;;;21.30;84.30;;;;;;4956711;29;20205;-82
2024/02/20 11:07:32;;;;;;;2.30;0.83;;;20.90;84.60;;;;;;4950690;29;20661;-82
2024/02/20 11:10:06;;;;;;;1.40;0.60;;;20.80;85.70;;;;;;4951355;29;20485;-82
2024/02/20 11:12:33;;;;;;;0.70;0.70;;;20.40;83.70;;;;;;4948993;29;20889;-82
2024/02/20 11:15:13;;;;;;;3.63;0.90;;;19.80;85.40;;;;;;4946624;29;20461;-82
2024/02/20 11:17:42;;;;;;;1.57;0.60;;;18.90;86.70;;;;;;4943666;29;20466;-82
2024/02/20 11:20:11;;;;;;;2.20;0.70;;;18.10;89.10;;;;;;4943493;29;20456;-81
2024/02/20 11:22:38;;;;;;;2.03;0.73;;;17.50;89.10;;;;;;4942930;29;20482;-82
2024/02/20 11:25:07;;;;;;;3.03;0.90;;;17.00;90.80;;;;;;4943031;29;20447;-82
2024/02/20 11:27:40;;;;;;;3.13;0.83;;;16.40;91.90;;;;;;4942041;29;20443;-82
2024/02/20 11:30:13;;;;;;;0.93;0.60;;;15.90;92.50;;;;;;4941552;29;20466;-82
2024/02/20 11:32:41;;;;;;;0.53;0.53;;;15.50;93.00;;;;;;4941460;29;20436;-82
2024/02/20 11:35:23;;;;;;;0.87;0.80;;;15.30;92.30;;;;;;4941215;29;20462;-82
2024/02/20 11:37:51;;;;;;;0.50;0.50;;;15.20;93.60;;;;;;4941009;29;20494;-83
2024/02/20 11:40:24;;;;;;;1.17;0.90;;;14.80;92.50;;;;;;4941320;29;20880;-83
2024/02/20 11:42:54;;;;;;;1.80;0.50;;;14.70;94.30;;;;;;4940833;29;20967;-82
2024/02/20 11:45:22;;;;;;;1.13;0.60;;;14.60;94.80;;;;;;4941569;29;20482;-82
2024/02/20 11:48:06;;;;;;;1.80;0.80;;;14.60;95.50;;;;;;4940789;29;20447;-82
2024/02/20 11:50:37;;;;;;;0.60;0.60;;;14.50;95.40;;;;;;4939422;29;20490;-82
2024/02/20 11:53:05;;;;;;;4.37;1.00;;;14.20;94.90;;;;;;4941400;29;20443;-82
2024/02/20 11:55:33;;;;;;;3.50;1.20;;;13.80;94.90;;;;;;4941286;29;20447;-82
2024/02/20 11:58:00;;;;;;;1.67;1.17;;;13.50;96.40;;;;;;4940897;29;20542;-82
2024/02/20 12:00:28;;;;;;;2.07;0.60;;;13.40;97.10;;;;;;4940587;29;20514;-82
2024/02/20 12:02:55;;;;;;;5.00;0.50;;;13.10;97.20;;;;;;4940621;29;20451;-82
2024/02/20 12:05:27;;;;;;;2.10;0.67;;;12.90;97.60;;;;;;4940797;29;20483;-82
2024/02/20 12:07:55;;;;;;;0.57;0.57;;;12.70;97.90;;;;;;4940315;29;20443;-82
2024/02/20 12:10:24;;;;;;;0.63;0.63;;;12.50;99.10;;;;;;4951558;29;20498;-82
2024/02/20 12:12:52;;;;;;;0.87;0.87;;;12.30;99.40;;;;;;4938133;29;20438;-82
2024/02/20 12:15:19;;;;;;;1.10;0.70;;;12.30;99.90;;;;;;4937291;29;20447;-82
2024/02/20 12:17:46;;;;;;;1.90;0.70;;;12.10;99.90;;;;;;4937712;29;20483;-83
2024/02/20 12:20:14;;;;;;;3.03;0.70;;;12.10;99.90;;;;;;4936716;29;20463;-83
2024/02/20 12:22:43;;;;;;;5.70;0.70;;;12.00;99.90;;;;;;4937038;29;20454;-83
2024/02/20 12:25:11;;;;;;;6.43;0.63;;;11.90;99.90;;;;;;4936917;29;20498;-83
2024/02/20 12:27:38;;;;;;;1.03;0.70;;;11.90;99.90;;;;;;4937262;29;20427;-82
2024/02/20 12:30:06;;;;;;;3.43;0.50;;;11.80;99.90;;;;;;4937575;29;20526;-82
2024/02/20 12:32:34;;;;;;;1.17;0.60;;;11.70;99.90;;;;;;4937306;29;20458;-82
2024/02/20 12:35:01;;;;;;;3.93;0.40;;;11.60;99.90;;;;;;4936918;29;20456;-82
2024/02/20 12:37:28;;;;;;;2.53;0.57;;;11.50;99.90;;;;;;4937062;29;20495;-82
2024/02/20 12:39:56;;;;;;;1.17;0.50;;;11.50;99.90;;;;;;4937158;29;20565;-82
2024/02/20 12:42:23;;;;;;;1.83;0.77;;;11.50;99.90;;;;;;4937383;29;20447;-82
2024/02/20 12:44:51;;;;;;;1.37;0.60;;;11.40;99.90;;;;;;4939663;29;20447;-82
2024/02/20 12:47:18;;;;;;;5.40;0.77;;;11.40;99.90;;;;;;4938884;29;20478;-82
2024/02/20 12:49:44;;;;;;;0.47;0.40;;;11.30;99.90;;;;;;4938501;29;20475;-82
2024/02/20 12:52:11;;;;;;;2.20;0.60;;;11.20;99.90;;;;;;4938134;29;20474;-82
2024/02/20 12:54:38;;;;;;;6.60;0.90;;;11.30;99.90;;;;;;4939070;29;20455;-82